Terminal Aerodrome Forecast
Issued by NWS Tampa Bay Area, FL

Home | Current Version | Previous Version | Text Only | Print | Product List | Glossary On
Versions: 1 2 3 4 5 6 7 8 9 10 11 12 13 14 15 16 17 18 19 20 21 22 23 24
000
FTUS42 KTBW 031400 AAB
TAFFMY
TAF AMD
KFMY 031422Z 0314/0412 10007KT P6SM SCT008
     FM031500 10010KT P6SM SCT025
     FM031700 13011KT P6SM SCT040
     FM032300 VRB05KT P6SM FEW050
     FM040100 VRB03KT P6SM SCT250
     FM040600 10004KT 3SM BR SCT010 SCT250=

USA.gov is the U.S. government's official web portal to all federal, state and local government web resources and services.